createdAt,value
2022-08-04T00:00:58.480Z,95424.09
2022-08-04T00:03:30.570Z,95422.16
2022-08-04T00:06:04.207Z,95415.06
2022-08-04T00:08:39.970Z,95420.50
2022-08-04T00:11:11.967Z,95413.75
2022-08-04T00:13:54.312Z,95393.13
2022-08-04T00:16:33.152Z,95426.34
2022-08-04T00:19:13.084Z,95424.09
2022-08-04T00:21:47.626Z,95431.16
2022-08-04T00:24:17.442Z,95430.84
2022-08-04T00:26:46.862Z,95433.88
2022-08-04T00:29:15.553Z,95427.81
2022-08-04T00:31:56.208Z,95446.34
2022-08-04T00:34:29.120Z,95433.28
2022-08-04T00:36:59.616Z,95434.06
2022-08-04T00:39:28.729Z,95434.59
2022-08-04T00:42:18.000Z,95427.31
2022-08-04T00:45:01.741Z,95428.97
2022-08-04T00:47:46.003Z,95429.25
2022-08-04T00:50:24.597Z,95428.34
2022-08-04T00:53:07.704Z,95414.28
2022-08-04T00:55:55.882Z,95418.19
2022-08-04T00:58:44.090Z,95418.97
2022-08-04T01:01:30.357Z,95419.81
2022-08-04T01:04:05.031Z,95421.53
2022-08-04T01:06:56.022Z,95414.59
2022-08-04T01:09:42.049Z,95411.72
2022-08-04T01:12:29.433Z,95400.56
2022-08-04T01:15:07.818Z,95415.09
2022-08-04T01:17:49.381Z,95414.84
2022-08-04T01:20:26.035Z,95429.00
2022-08-04T01:23:35.098Z,95429.00
2022-08-04T01:26:57.843Z,95425.63
2022-08-04T01:29:43.784Z,95429.78
2022-08-04T01:32:26.058Z,95414.19
2022-08-04T01:35:01.497Z,95405.13
2022-08-04T01:37:45.434Z,95417.78
2022-08-04T01:40:16.574Z,95417.06
2022-08-04T01:42:46.732Z,95417.78
2022-08-04T01:45:17.110Z,95419.00
2022-08-04T01:47:52.656Z,95399.41
2022-08-04T01:50:22.237Z,95412.44
2022-08-04T01:52:53.736Z,95423.13
2022-08-04T01:55:22.645Z,95416.41
2022-08-04T01:57:53.076Z,95422.50
2022-08-04T02:00:27.525Z,95421.72
2022-08-04T02:02:57.086Z,95419.09
2022-08-04T02:06:03.746Z,95416.41
2022-08-04T02:08:23.263Z,95420.47
2022-08-04T02:11:05.378Z,95417.13
2022-08-04T02:13:40.177Z,95422.72
2022-08-04T02:16:17.807Z,95423.63
2022-08-04T02:18:59.169Z,95433.28
2022-08-04T02:21:42.733Z,95425.78
2022-08-04T02:24:18.578Z,95425.19
2022-08-04T02:26:51.620Z,95438.44
2022-08-04T02:29:22.414Z,95432.38
2022-08-04T02:32:03.025Z,95437.69
2022-08-04T02:34:39.941Z,95432.50
2022-08-04T02:37:11.922Z,95426.00
2022-08-04T02:39:48.138Z,95433.00
2022-08-04T02:42:18.717Z,95438.78
2022-08-04T02:44:51.478Z,95434.28
2022-08-04T02:47:23.482Z,95433.09
2022-08-04T02:50:28.333Z,95425.66
2022-08-04T02:52:59.602Z,95424.19
2022-08-04T02:55:30.505Z,95432.88
2022-08-04T02:58:00.184Z,95433.38
2022-08-04T03:00:29.290Z,95431.94
2022-08-04T03:03:14.171Z,95433.41
2022-08-04T03:06:10.346Z,95434.91
2022-08-04T03:08:59.608Z,95435.94
2022-08-04T03:12:02.326Z,95428.47
2022-08-04T03:14:57.389Z,95445.50
2022-08-04T03:18:03.183Z,95435.50
2022-08-04T03:21:22.681Z,95442.94
2022-08-04T03:24:39.287Z,95443.16
2022-08-04T03:27:13.905Z,95440.91
2022-08-04T03:30:05.830Z,95444.81
2022-08-04T03:33:06.631Z,95441.63
2022-08-04T03:36:06.776Z,95448.13
2022-08-04T03:39:05.083Z,95408.88
2022-08-04T03:42:06.472Z,95442.44
2022-08-04T03:45:23.537Z,95447.31
2022-08-04T03:48:25.543Z,95447.66
2022-08-04T03:51:41.245Z,95450.53
2022-08-04T03:54:39.909Z,95445.56
2022-08-04T03:57:31.985Z,95449.63
2022-08-04T04:00:09.814Z,95446.34
2022-08-04T04:03:09.895Z,95452.66
2022-08-04T04:06:05.200Z,95445.06
2022-08-04T04:08:49.774Z,95464.66
2022-08-04T04:11:58.042Z,95462.56
2022-08-04T04:15:03.525Z,95462.00
2022-08-04T04:18:11.884Z,95467.78
2022-08-04T04:20:59.214Z,95455.28
2022-08-04T04:23:52.279Z,95462.38
2022-08-04T04:26:39.028Z,95451.06
2022-08-04T04:29:29.745Z,95461.81
2022-08-04T04:32:23.026Z,95446.72
2022-08-04T04:35:12.450Z,95447.75
2022-08-04T04:38:01.640Z,95453.47
2022-08-04T04:40:49.740Z,95451.31
2022-08-04T04:43:50.936Z,95467.59
2022-08-04T04:46:31.628Z,95465.81
2022-08-04T04:49:10.053Z,95467.69
2022-08-04T04:51:45.917Z,95462.47
2022-08-04T04:54:26.688Z,95460.16
2022-08-04T04:57:04.651Z,95463.94
2022-08-04T04:59:36.300Z,95457.97
2022-08-04T05:02:34.273Z,95459.19
2022-08-04T05:05:22.685Z,95455.13
2022-08-04T05:08:45.337Z,95455.06
2022-08-04T05:11:47.357Z,95491.91
2022-08-04T05:14:37.201Z,95462.69
2022-08-04T05:17:16.993Z,95457.97
2022-08-04T05:19:55.115Z,95454.94
2022-08-04T05:22:30.213Z,95461.19
2022-08-04T05:25:06.159Z,95458.63
2022-08-04T05:27:41.616Z,95452.09
2022-08-04T05:30:11.998Z,95462.56
2022-08-04T05:32:48.355Z,95472.97
2022-08-04T05:35:37.354Z,95469.19
2022-08-04T05:38:18.516Z,95411.03
2022-08-04T05:40:47.594Z,95406.06
2022-08-04T05:43:17.337Z,95472.81
2022-08-04T05:45:48.437Z,95474.22
2022-08-04T05:48:17.184Z,95472.72
2022-08-04T05:50:47.445Z,95460.25
2022-08-04T05:53:19.244Z,95469.34
2022-08-04T05:55:59.358Z,95477.47
2022-08-04T05:58:30.949Z,95467.59
2022-08-04T06:01:00.960Z,95467.53
2022-08-04T06:03:31.563Z,95462.09
2022-08-04T06:06:01.387Z,95464.38
2022-08-04T06:08:32.086Z,95446.53
2022-08-04T06:11:05.169Z,95451.94
2022-08-04T06:13:47.623Z,95447.75
2022-08-04T06:16:29.606Z,95452.94
2022-08-04T06:20:00.175Z,95447.50
2022-08-04T06:21:55.208Z,95457.50
2022-08-04T06:24:27.964Z,95441.16
2022-08-04T06:26:58.053Z,95384.41
2022-08-04T06:29:32.685Z,95440.19
2022-08-04T06:32:30.603Z,95457.19
2022-08-04T06:35:04.845Z,95440.34
2022-08-04T06:37:43.386Z,95439.81
2022-08-04T06:40:30.486Z,95445.28
2022-08-04T06:43:02.451Z,95452.91
2022-08-04T06:45:34.552Z,95437.53
2022-08-04T06:48:04.133Z,95439.06
2022-08-04T06:51:25.534Z,95442.25
2022-08-04T06:53:22.511Z,95440.38
2022-08-04T06:55:53.232Z,95441.44
2022-08-04T06:58:23.351Z,95429.41
2022-08-04T07:00:53.729Z,95435.59
2022-08-04T07:03:23.194Z,95416.03
2022-08-04T07:05:53.676Z,95439.00
2022-08-04T07:08:23.068Z,95436.44
2022-08-04T07:10:54.550Z,95436.63
2022-08-04T07:13:24.613Z,95434.91
2022-08-04T07:15:54.172Z,95448.13
2022-08-04T07:18:22.668Z,95420.31
2022-08-04T07:20:51.851Z,95380.88
2022-08-04T07:23:25.615Z,95423.13
2022-08-04T07:26:00.279Z,95423.41
2022-08-04T07:28:41.093Z,95405.06
2022-08-04T07:31:32.985Z,95420.00
2022-08-04T07:34:20.535Z,95407.50
2022-08-04T07:36:52.937Z,95412.97
2022-08-04T07:39:28.395Z,95411.38
2022-08-04T07:42:01.610Z,95408.25
2022-08-04T07:44:31.313Z,95399.38
2022-08-04T07:47:00.203Z,95401.75
2022-08-04T07:49:52.230Z,95404.34
2022-08-04T07:52:17.857Z,95386.13
2022-08-04T07:54:46.900Z,95405.41
2022-08-04T07:57:40.646Z,95396.53
2022-08-04T08:00:09.010Z,95394.09
2022-08-04T08:02:39.525Z,95391.81
2022-08-04T08:05:10.755Z,95388.06
2022-08-04T08:07:51.009Z,95388.50
2022-08-04T08:10:23.398Z,95389.00
2022-08-04T08:12:54.325Z,95392.16
2022-08-04T08:15:23.794Z,95387.50
2022-08-04T08:18:00.050Z,95383.66
2022-08-04T08:20:33.039Z,95384.31
2022-08-04T08:23:03.171Z,95386.66
2022-08-04T08:25:33.003Z,95381.13
2022-08-04T08:28:05.435Z,95384.59
2022-08-04T08:30:34.835Z,95383.28
2022-08-04T08:33:07.334Z,95377.31
2022-08-04T08:35:54.815Z,95378.09
2022-08-04T08:38:39.362Z,95375.41
2022-08-04T08:41:37.362Z,95373.88
2022-08-04T08:44:48.836Z,95382.50
2022-08-04T08:47:29.684Z,95378.34
2022-08-04T08:50:56.997Z,95369.03
2022-08-04T08:53:39.486Z,95373.19
2022-08-04T08:56:19.796Z,95367.66
2022-08-04T08:59:17.928Z,95360.59
2022-08-04T09:02:08.359Z,95359.78
2022-08-04T09:05:15.952Z,95348.31
2022-08-04T09:07:59.574Z,95355.09
2022-08-04T09:10:35.387Z,95355.97
2022-08-04T09:13:07.535Z,95349.16
2022-08-04T09:15:41.193Z,95345.81
2022-08-04T09:18:19.591Z,95343.78
2022-08-04T09:20:52.971Z,95342.47
2022-08-04T09:23:29.777Z,95336.28
2022-08-04T09:26:07.555Z,95336.25
2022-08-04T09:28:54.704Z,95328.59
2022-08-04T09:31:51.582Z,95330.88
2022-08-04T09:34:36.665Z,95332.16
2022-08-04T09:37:14.355Z,95325.19
2022-08-04T09:39:52.079Z,95325.78
2022-08-04T09:42:30.943Z,95329.31
2022-08-04T09:45:06.765Z,95324.81
2022-08-04T09:47:41.099Z,95318.44
2022-08-04T09:50:35.123Z,95315.88
2022-08-04T09:53:14.788Z,95321.72
2022-08-04T09:55:55.815Z,95318.78
2022-08-04T09:58:40.562Z,95300.31
2022-08-04T10:01:11.716Z,95307.19
2022-08-04T10:03:45.110Z,95255.31
2022-08-04T10:06:37.843Z,95278.88
2022-08-04T10:09:20.418Z,95263.47
2022-08-04T10:12:04.812Z,95281.00
2022-08-04T10:14:41.616Z,95295.19
2022-08-04T10:17:24.702Z,95306.63
2022-08-04T10:20:03.269Z,95301.59
2022-08-04T10:23:02.160Z,95293.59
2022-08-04T10:26:05.452Z,95303.38
2022-08-04T10:28:32.504Z,95299.47
2022-08-04T10:31:04.674Z,95282.34
2022-08-04T10:33:40.094Z,95299.00
2022-08-04T10:36:12.143Z,95243.19
2022-08-04T10:38:51.628Z,95276.91
2022-08-04T10:41:27.152Z,95281.97
2022-08-04T10:44:14.964Z,95168.38
2022-08-04T10:46:50.130Z,95301.88
2022-08-04T10:49:24.864Z,95272.16
2022-08-04T10:52:00.775Z,95284.56
2022-08-04T10:54:44.033Z,95283.91
2022-08-04T10:57:16.878Z,95280.81
2022-08-04T10:59:58.035Z,95205.41
2022-08-04T11:02:39.234Z,95253.50
2022-08-04T11:05:19.410Z,95254.34
2022-08-04T11:07:52.798Z,95260.69
2022-08-04T11:10:25.436Z,95282.97
2022-08-04T11:13:02.012Z,95252.44
2022-08-04T11:15:38.139Z,95135.56
2022-08-04T11:18:16.225Z,95264.06
2022-08-04T11:20:53.833Z,95254.47
2022-08-04T11:23:28.205Z,95249.59
2022-08-04T11:26:05.098Z,95243.56
2022-08-04T11:28:44.065Z,95248.59
2022-08-04T11:31:20.149Z,95225.03
2022-08-04T11:33:58.141Z,95241.16
2022-08-04T11:36:36.050Z,95220.91
2022-08-04T11:39:11.479Z,95242.53
2022-08-04T11:41:48.972Z,95245.00
2022-08-04T11:44:28.028Z,95238.81
2022-08-04T11:47:00.779Z,95214.63
2022-08-04T11:49:56.601Z,95236.91
2022-08-04T11:52:26.219Z,95233.19
2022-08-04T11:54:57.260Z,95231.22
2022-08-04T11:57:35.761Z,95233.34
2022-08-04T12:00:09.931Z,95232.31
2022-08-04T12:03:00.809Z,95231.97
2022-08-04T12:05:36.907Z,95160.59
2022-08-04T12:08:22.175Z,95231.81
2022-08-04T12:11:04.964Z,95213.41
2022-08-04T12:13:43.926Z,95208.38
2022-08-04T12:16:18.212Z,95224.38
2022-08-04T12:18:57.417Z,95242.31
2022-08-04T12:21:33.154Z,95194.59
2022-08-04T12:24:06.629Z,95217.94
2022-08-04T12:26:38.757Z,95220.47
2022-08-04T12:29:11.645Z,95223.59
2022-08-04T12:31:47.041Z,95212.88
2022-08-04T12:34:19.017Z,95187.09
2022-08-04T12:36:55.921Z,95208.75
2022-08-04T12:39:27.199Z,95149.88
2022-08-04T12:42:04.895Z,95215.28
2022-08-04T12:44:38.283Z,95219.38
2022-08-04T12:47:27.071Z,95209.94
2022-08-04T12:50:02.965Z,95211.31
2022-08-04T12:53:01.632Z,95214.41
2022-08-04T12:55:30.117Z,95213.09
2022-08-04T12:57:59.506Z,95212.75
2022-08-04T13:00:40.243Z,95205.84
2022-08-04T13:03:12.389Z,95207.41
2022-08-04T13:05:42.495Z,95203.56
2022-08-04T13:08:12.367Z,95202.94
2022-08-04T13:10:42.637Z,95194.13
2022-08-04T13:13:18.861Z,95201.22
2022-08-04T13:15:59.435Z,95216.44
2022-08-04T13:18:32.251Z,95200.91
2022-08-04T13:21:21.118Z,95200.69
2022-08-04T13:24:09.905Z,95202.66
2022-08-04T13:26:55.357Z,95209.38
2022-08-04T13:30:00.602Z,95143.88
2022-08-04T13:32:22.479Z,95209.59
2022-08-04T13:34:54.157Z,95210.09
2022-08-04T13:37:26.942Z,95215.88
2022-08-04T13:39:56.946Z,95209.38
2022-08-04T13:42:28.085Z,95205.34
2022-08-04T13:44:58.755Z,95214.56
2022-08-04T13:47:31.679Z,95216.50
2022-08-04T13:50:19.493Z,95212.63
2022-08-04T13:52:48.781Z,95200.56
2022-08-04T13:55:26.233Z,95202.66
2022-08-04T13:58:03.207Z,95201.28
2022-08-04T14:00:45.608Z,95207.00
2022-08-04T14:03:24.868Z,95202.72
2022-08-04T14:06:16.517Z,95200.94
2022-08-04T14:08:51.371Z,95198.09
2022-08-04T14:12:09.482Z,95209.44
2022-08-04T14:14:18.365Z,95193.72
2022-08-04T14:17:00.706Z,95201.38
2022-08-04T14:19:35.969Z,95119.13
2022-08-04T14:22:04.987Z,95192.19
2022-08-04T14:24:33.418Z,95191.69
2022-08-04T14:27:02.302Z,95167.44
2022-08-04T14:29:42.036Z,95193.69
2022-08-04T14:32:14.605Z,95193.69
2022-08-04T14:34:46.341Z,95182.81
2022-08-04T14:37:20.684Z,95164.78
2022-08-04T14:40:18.268Z,95189.13
2022-08-04T14:42:44.237Z,95193.81
2022-08-04T14:45:13.353Z,95189.13
2022-08-04T14:47:52.643Z,95199.97
2022-08-04T14:50:35.576Z,95198.84
2022-08-04T14:53:04.916Z,95203.59
2022-08-04T14:55:33.411Z,95202.34
2022-08-04T14:58:37.659Z,95207.63
2022-08-04T15:00:51.243Z,95195.41
2022-08-04T15:03:22.055Z,95202.28
2022-08-04T15:05:55.081Z,95199.13
2022-08-04T15:08:32.778Z,95196.75
2022-08-04T15:11:03.412Z,95203.59
2022-08-04T15:13:33.713Z,95197.09
2022-08-04T15:16:07.882Z,95202.84
2022-08-04T15:18:39.017Z,95199.69
2022-08-04T15:21:09.682Z,95202.22
2022-08-04T15:23:40.172Z,95213.72
2022-08-04T15:26:13.240Z,95210.06
2022-08-04T15:28:46.118Z,95166.75
2022-08-04T15:32:05.774Z,95169.72
2022-08-04T15:34:05.921Z,95199.66
2022-08-04T15:36:43.606Z,95202.50
2022-08-04T15:39:27.416Z,95199.34
2022-08-04T15:42:12.960Z,95209.44
2022-08-04T15:45:14.130Z,95211.78
2022-08-04T15:47:42.790Z,95139.94
2022-08-04T15:50:28.444Z,95167.84
2022-08-04T15:53:12.676Z,95207.88
2022-08-04T15:55:44.076Z,95194.66
2022-08-04T15:58:14.010Z,95210.25
2022-08-04T16:01:15.635Z,95213.03
2022-08-04T16:03:57.949Z,95214.53
2022-08-04T16:06:44.930Z,95221.22
2022-08-04T16:09:25.131Z,95191.97
2022-08-04T16:12:55.146Z,95215.31
2022-08-04T16:15:47.103Z,95151.03
2022-08-04T16:18:26.421Z,95199.06
2022-08-04T16:20:58.123Z,95210.78
2022-08-04T16:24:07.642Z,95146.06
2022-08-04T16:26:56.169Z,95215.47
2022-08-04T16:29:31.034Z,95220.19
2022-08-04T16:32:10.751Z,95178.81
2022-08-04T16:34:54.006Z,95219.75
2022-08-04T16:37:30.733Z,95220.13
2022-08-04T16:40:34.131Z,95221.69
2022-08-04T16:43:08.068Z,95216.94
2022-08-04T16:45:47.985Z,95223.22
2022-08-04T16:48:17.220Z,95217.22
2022-08-04T16:51:05.841Z,95230.75
2022-08-04T16:53:53.578Z,95195.56
2022-08-04T16:56:34.571Z,95163.03
2022-08-04T16:59:11.811Z,95238.66
2022-08-04T17:01:47.259Z,95244.41
2022-08-04T17:04:16.234Z,95243.25
2022-08-04T17:06:47.214Z,95256.75
2022-08-04T17:09:17.225Z,95246.91
2022-08-04T17:11:47.773Z,95250.78
2022-08-04T17:14:23.263Z,95249.50
2022-08-04T17:16:52.502Z,95251.06
2022-08-04T17:19:26.290Z,95247.16
2022-08-04T17:22:04.127Z,95252.75
2022-08-04T17:24:34.694Z,95262.06
2022-08-04T17:27:04.207Z,95261.78
2022-08-04T17:29:53.627Z,95261.72
2022-08-04T17:32:23.897Z,95238.91
2022-08-04T17:34:54.581Z,95256.81
2022-08-04T17:37:52.989Z,95266.22
2022-08-04T17:40:22.436Z,95265.06
2022-08-04T17:44:01.508Z,95273.13
2022-08-04T17:46:28.576Z,95279.47
2022-08-04T17:49:07.609Z,95275.56
2022-08-04T17:52:06.373Z,95247.34
2022-08-04T17:54:37.223Z,95281.09
2022-08-04T18:00:05.453Z,95282.09
2022-08-04T18:02:36.763Z,95283.88
2022-08-04T18:08:39.190Z,95285.94
2022-08-04T18:10:55.165Z,95291.84
2022-08-04T18:13:26.567Z,95249.72
2022-08-04T18:16:05.382Z,95297.09
2022-08-04T18:18:35.412Z,95302.22
2022-08-04T18:21:07.210Z,95296.44
2022-08-04T18:23:35.612Z,95304.16
2022-08-04T18:26:23.728Z,95310.69
2022-08-04T18:28:52.534Z,95309.50
2022-08-04T18:31:21.395Z,95304.00
2022-08-04T18:33:59.030Z,95315.47
2022-08-04T18:36:33.751Z,95320.56
2022-08-04T18:39:17.466Z,95324.13
2022-08-04T18:42:05.993Z,95316.75
2022-08-04T18:44:49.360Z,95296.72
2022-08-04T18:47:23.054Z,95327.31
2022-08-04T18:50:59.272Z,95333.72
2022-08-04T18:52:42.000Z,95337.16
2022-08-04T18:55:55.631Z,95341.25
2022-08-04T18:58:06.079Z,95349.75
2022-08-04T19:00:36.970Z,95344.31
2022-08-04T19:03:16.230Z,95348.91
2022-08-04T19:05:48.504Z,95352.44
2022-08-04T19:08:34.793Z,95354.31
2022-08-04T19:11:37.183Z,95356.09
2022-08-04T19:13:58.600Z,95357.63
2022-08-04T19:16:28.674Z,95355.91
2022-08-04T19:18:57.640Z,95353.44
2022-08-04T19:21:59.223Z,95363.50
2022-08-04T19:24:31.416Z,95359.66
2022-08-04T19:27:07.368Z,95366.63
2022-08-04T19:29:42.884Z,95356.75
2022-08-04T19:32:15.113Z,95364.47
2022-08-04T19:34:47.086Z,95367.09
2022-08-04T19:37:57.032Z,95350.31
2022-08-04T19:40:09.470Z,95356.00
2022-08-04T19:42:38.757Z,95359.53
2022-08-04T19:45:09.489Z,95359.66
2022-08-04T19:48:15.847Z,95366.22
2022-08-04T19:50:32.689Z,95360.63
2022-08-04T19:53:04.198Z,95364.94
2022-08-04T19:55:49.892Z,95363.03
2022-08-04T19:58:21.698Z,95368.47
2022-08-04T20:00:55.036Z,95374.63
2022-08-04T20:04:09.538Z,95369.91
2022-08-04T20:06:12.451Z,95360.47
2022-08-04T20:08:48.668Z,95367.16
2022-08-04T20:11:18.502Z,95353.38
2022-08-04T20:13:54.669Z,95375.22
2022-08-04T20:16:29.930Z,95375.38
2022-08-04T20:19:03.652Z,95376.88
2022-08-04T20:21:53.917Z,95380.78
2022-08-04T20:24:37.649Z,95382.06
2022-08-04T20:27:14.768Z,95389.00
2022-08-04T20:32:32.672Z,95381.25
2022-08-04T20:35:01.198Z,95382.44
2022-08-04T20:38:00.057Z,95380.38
2022-08-04T20:40:19.830Z,95367.78
2022-08-04T20:42:48.317Z,95323.00
2022-08-04T20:45:16.898Z,95390.31
2022-08-04T20:47:53.182Z,95389.75
2022-08-04T20:50:29.730Z,95391.66
2022-08-04T20:52:59.690Z,95387.28
2022-08-04T20:55:30.059Z,95386.84
2022-08-04T21:00:47.165Z,95397.59
2022-08-04T21:03:49.610Z,95393.25
2022-08-04T21:06:10.785Z,95393.66
2022-08-04T21:08:39.307Z,95395.97
2022-08-04T21:11:09.805Z,95391.13
2022-08-04T21:13:52.377Z,95391.84
2022-08-04T21:16:55.072Z,95398.69
2022-08-04T21:19:13.025Z,95400.75
2022-08-04T21:21:42.496Z,95397.97
2022-08-04T21:24:13.498Z,95410.13
2022-08-04T21:26:46.357Z,95410.44
2022-08-04T21:29:15.372Z,95386.53
2022-08-04T21:31:50.933Z,95393.75
2022-08-04T21:34:36.747Z,95421.88
2022-08-04T21:37:09.236Z,95420.84
2022-08-04T21:39:50.224Z,95421.47
2022-08-04T21:42:30.591Z,95331.50
2022-08-04T21:44:59.490Z,95429.41
2022-08-04T21:47:45.770Z,95427.94
2022-08-04T21:50:19.891Z,95428.09
2022-08-04T21:52:49.315Z,95277.22
2022-08-04T21:55:19.005Z,95429.00
2022-08-04T21:57:49.584Z,95424.34
2022-08-04T22:00:20.251Z,95428.34
2022-08-04T22:02:53.261Z,95427.13
2022-08-04T22:05:22.425Z,95425.84
2022-08-04T22:10:39.420Z,95428.41
2022-08-04T22:13:22.668Z,95431.44
2022-08-04T22:16:03.759Z,95430.94
2022-08-04T22:18:36.844Z,95424.28
2022-08-04T22:21:11.847Z,95428.97
2022-08-04T22:23:46.922Z,95433.72
2022-08-04T22:26:20.210Z,95435.13
2022-08-04T22:28:58.094Z,95432.22
2022-08-04T22:31:26.812Z,95444.00
2022-08-04T22:34:15.090Z,95438.34
2022-08-04T22:36:47.771Z,95442.16
2022-08-04T22:39:16.567Z,95437.81
2022-08-04T22:41:48.972Z,95438.69
2022-08-04T22:44:33.712Z,95433.06
2022-08-04T22:47:02.416Z,95431.28
2022-08-04T22:49:32.585Z,95439.69
2022-08-04T22:52:02.927Z,95434.03
2022-08-04T22:54:39.471Z,95434.63
2022-08-04T22:57:09.226Z,95437.09
2022-08-04T22:59:43.026Z,95426.00
2022-08-04T23:02:11.786Z,95430.75
2022-08-04T23:04:43.117Z,95421.97
2022-08-04T23:07:12.804Z,95436.69
2022-08-04T23:09:50.467Z,95431.19
2022-08-04T23:12:26.297Z,95434.13
2022-08-04T23:14:57.073Z,95431.69
2022-08-04T23:17:27.824Z,95426.72
2022-08-04T23:19:58.234Z,95376.47
2022-08-04T23:22:37.164Z,95439.94
2022-08-04T23:25:15.510Z,95433.81
2022-08-04T23:27:50.966Z,95443.09
2022-08-04T23:30:29.427Z,95441.56
2022-08-04T23:32:58.545Z,95434.19
2022-08-04T23:35:27.174Z,95440.44
2022-08-04T23:37:57.174Z,95366.88
2022-08-04T23:40:32.696Z,95373.03
2022-08-04T23:43:16.924Z,95351.44
2022-08-04T23:46:04.197Z,95437.75
2022-08-04T23:48:36.302Z,95445.72
2022-08-04T23:51:14.554Z,95430.78
2022-08-04T23:54:01.983Z,95440.09
2022-08-04T23:56:33.214Z,95449.16
2022-08-04T23:59:04.417Z,95444.94
